sensor_id;sensor_type;location;lat;lon;timestamp;P1;durP1;ratioP1;P2;durP2;ratioP2
13309;SDS011;6723;48.256;16.402;2023-03-13T00:00:54;8.00;;;4.10;;
13309;SDS011;6723;48.256;16.402;2023-03-13T00:03:22;7.30;;;4.17;;
13309;SDS011;6723;48.256;16.402;2023-03-13T00:05:48;5.57;;;4.10;;
13309;SDS011;6723;48.256;16.402;2023-03-13T00:08:14;6.37;;;4.33;;
13309;SDS011;6723;48.256;16.402;2023-03-13T00:10:40;4.30;;;3.67;;
13309;SDS011;6723;48.256;16.402;2023-03-13T00:13:07;3.83;;;3.20;;
13309;SDS011;6723;48.256;16.402;2023-03-13T00:15:33;3.87;;;2.77;;
13309;SDS011;6723;48.256;16.402;2023-03-13T00:17:59;4.17;;;2.87;;
13309;SDS011;6723;48.256;16.402;2023-03-13T00:20:25;3.87;;;3.27;;
13309;SDS011;6723;48.256;16.402;2023-03-13T00:22:51;5.20;;;2.87;;
13309;SDS011;6723;48.256;16.402;2023-03-13T00:25:17;4.53;;;3.10;;
13309;SDS011;6723;48.256;16.402;2023-03-13T00:27:42;3.63;;;2.80;;
13309;SDS011;6723;48.256;16.402;2023-03-13T00:30:08;3.50;;;2.87;;
13309;SDS011;6723;48.256;16.402;2023-03-13T00:32:41;3.60;;;2.90;;
13309;SDS011;6723;48.256;16.402;2023-03-13T00:35:10;4.40;;;3.03;;
13309;SDS011;6723;48.256;16.402;2023-03-13T00:37:37;4.23;;;3.23;;
13309;SDS011;6723;48.256;16.402;2023-03-13T00:40:03;4.73;;;2.90;;
13309;SDS011;6723;48.256;16.402;2023-03-13T00:42:30;4.40;;;2.83;;
13309;SDS011;6723;48.256;16.402;2023-03-13T00:44:55;4.23;;;2.77;;
13309;SDS011;6723;48.256;16.402;2023-03-13T00:47:21;3.70;;;2.80;;
13309;SDS011;6723;48.256;16.402;2023-03-13T00:49:47;5.07;;;3.23;;
13309;SDS011;6723;48.256;16.402;2023-03-13T00:52:14;3.87;;;3.03;;
13309;SDS011;6723;48.256;16.402;2023-03-13T00:54:40;3.63;;;2.87;;
13309;SDS011;6723;48.256;16.402;2023-03-13T00:57:07;5.10;;;3.20;;
13309;SDS011;6723;48.256;16.402;2023-03-13T00:59:33;3.57;;;3.00;;
13309;SDS011;6723;48.256;16.402;2023-03-13T01:01:59;3.60;;;2.90;;
13309;SDS011;6723;48.256;16.402;2023-03-13T01:04:25;5.10;;;2.90;;
13309;SDS011;6723;48.256;16.402;2023-03-13T01:06:51;3.57;;;3.00;;
13309;SDS011;6723;48.256;16.402;2023-03-13T01:09:17;4.87;;;3.23;;
13309;SDS011;6723;48.256;16.402;2023-03-13T01:11:44;4.53;;;2.87;;
13309;SDS011;6723;48.256;16.402;2023-03-13T01:14:13;3.67;;;2.90;;
13309;SDS011;6723;48.256;16.402;2023-03-13T01:16:41;4.27;;;2.83;;
13309;SDS011;6723;48.256;16.402;2023-03-13T01:19:08;3.00;;;2.70;;
13309;SDS011;6723;48.256;16.402;2023-03-13T01:21:36;3.23;;;2.83;;
13309;SDS011;6723;48.256;16.402;2023-03-13T01:24:03;4.60;;;3.40;;
13309;SDS011;6723;48.256;16.402;2023-03-13T01:26:29;4.50;;;2.80;;
13309;SDS011;6723;48.256;16.402;2023-03-13T01:28:54;4.27;;;2.77;;
13309;SDS011;6723;48.256;16.402;2023-03-13T01:33:55;3.30;;;2.83;;
13309;SDS011;6723;48.256;16.402;2023-03-13T01:36:23;4.00;;;3.03;;
13309;SDS011;6723;48.256;16.402;2023-03-13T01:38:51;3.90;;;2.77;;
13309;SDS011;6723;48.256;16.402;2023-03-13T01:41:19;3.90;;;3.00;;
13309;SDS011;6723;48.256;16.402;2023-03-13T01:43:45;4.13;;;3.00;;
13309;SDS011;6723;48.256;16.402;2023-03-13T01:51:09;3.87;;;2.83;;
13309;SDS011;6723;48.256;16.402;2023-03-13T01:53:43;2.80;;;2.40;;
13309;SDS011;6723;48.256;16.402;2023-03-13T01:56:16;3.70;;;2.97;;
13309;SDS011;6723;48.256;16.402;2023-03-13T01:58:47;4.33;;;2.87;;
13309;SDS011;6723;48.256;16.402;2023-03-13T02:01:15;3.13;;;2.50;;
13309;SDS011;6723;48.256;16.402;2023-03-13T02:03:42;3.87;;;2.87;;
13309;SDS011;6723;48.256;16.402;2023-03-13T02:06:09;4.10;;;2.97;;
13309;SDS011;6723;48.256;16.402;2023-03-13T02:08:37;3.90;;;2.97;;
13309;SDS011;6723;48.256;16.402;2023-03-13T02:13:42;4.87;;;2.80;;
13309;SDS011;6723;48.256;16.402;2023-03-13T02:16:08;4.87;;;3.27;;
13309;SDS011;6723;48.256;16.402;2023-03-13T02:18:35;5.33;;;3.03;;
13309;SDS011;6723;48.256;16.402;2023-03-13T02:23:58;4.23;;;3.20;;
13309;SDS011;6723;48.256;16.402;2023-03-13T02:26:44;5.30;;;3.57;;
13309;SDS011;6723;48.256;16.402;2023-03-13T02:29:10;6.00;;;3.63;;
13309;SDS011;6723;48.256;16.402;2023-03-13T02:31:43;3.70;;;3.03;;
13309;SDS011;6723;48.256;16.402;2023-03-13T02:34:10;4.70;;;3.30;;
13309;SDS011;6723;48.256;16.402;2023-03-13T02:36:43;5.23;;;3.30;;
13309;SDS011;6723;48.256;16.402;2023-03-13T02:39:10;6.90;;;3.90;;
13309;SDS011;6723;48.256;16.402;2023-03-13T02:41:39;5.03;;;4.07;;
13309;SDS011;6723;48.256;16.402;2023-03-13T02:44:07;5.30;;;4.10;;
13309;SDS011;6723;48.256;16.402;2023-03-13T02:46:43;8.50;;;5.83;;
13309;SDS011;6723;48.256;16.402;2023-03-13T02:51:54;5.07;;;4.00;;
13309;SDS011;6723;48.256;16.402;2023-03-13T02:54:40;4.47;;;3.30;;
13309;SDS011;6723;48.256;16.402;2023-03-13T02:57:09;5.23;;;4.03;;
13309;SDS011;6723;48.256;16.402;2023-03-13T02:59:35;4.33;;;3.53;;
13309;SDS011;6723;48.256;16.402;2023-03-13T03:02:01;4.93;;;3.23;;
13309;SDS011;6723;48.256;16.402;2023-03-13T03:04:28;5.50;;;3.63;;
13309;SDS011;6723;48.256;16.402;2023-03-13T03:06:54;4.40;;;3.73;;
13309;SDS011;6723;48.256;16.402;2023-03-13T03:09:20;4.50;;;3.60;;
13309;SDS011;6723;48.256;16.402;2023-03-13T03:11:47;4.87;;;3.93;;
13309;SDS011;6723;48.256;16.402;2023-03-13T03:14:13;6.63;;;3.77;;
13309;SDS011;6723;48.256;16.402;2023-03-13T03:16:39;6.93;;;3.50;;
13309;SDS011;6723;48.256;16.402;2023-03-13T03:19:06;6.07;;;3.70;;
13309;SDS011;6723;48.256;16.402;2023-03-13T03:21:33;4.17;;;3.60;;
13309;SDS011;6723;48.256;16.402;2023-03-13T03:23:59;4.27;;;3.77;;
13309;SDS011;6723;48.256;16.402;2023-03-13T03:26:25;6.43;;;3.90;;
13309;SDS011;6723;48.256;16.402;2023-03-13T03:28:51;4.47;;;3.77;;
13309;SDS011;6723;48.256;16.402;2023-03-13T03:31:18;5.23;;;3.73;;
13309;SDS011;6723;48.256;16.402;2023-03-13T03:33:43;5.90;;;3.77;;
13309;SDS011;6723;48.256;16.402;2023-03-13T03:36:14;6.03;;;3.63;;
13309;SDS011;6723;48.256;16.402;2023-03-13T03:38:42;6.60;;;3.80;;
13309;SDS011;6723;48.256;16.402;2023-03-13T03:41:09;6.23;;;4.20;;
13309;SDS011;6723;48.256;16.402;2023-03-13T03:43:36;5.17;;;3.83;;
13309;SDS011;6723;48.256;16.402;2023-03-13T03:46:02;6.57;;;3.87;;
13309;SDS011;6723;48.256;16.402;2023-03-13T03:48:28;6.43;;;4.23;;
13309;SDS011;6723;48.256;16.402;2023-03-13T03:50:54;6.60;;;4.13;;
13309;SDS011;6723;48.256;16.402;2023-03-13T03:53:20;6.80;;;4.40;;
13309;SDS011;6723;48.256;16.402;2023-03-13T03:55:46;5.07;;;3.93;;
13309;SDS011;6723;48.256;16.402;2023-03-13T03:58:12;6.27;;;4.00;;
13309;SDS011;6723;48.256;16.402;2023-03-13T04:00:38;6.40;;;4.03;;
13309;SDS011;6723;48.256;16.402;2023-03-13T04:03:04;5.27;;;3.63;;
13309;SDS011;6723;48.256;16.402;2023-03-13T04:05:30;4.87;;;4.10;;
13309;SDS011;6723;48.256;16.402;2023-03-13T04:07:55;6.27;;;3.97;;
13309;SDS011;6723;48.256;16.402;2023-03-13T04:10:21;5.73;;;4.07;;
13309;SDS011;6723;48.256;16.402;2023-03-13T04:12:47;7.40;;;4.50;;
13309;SDS011;6723;48.256;16.402;2023-03-13T04:15:12;7.97;;;4.27;;
13309;SDS011;6723;48.256;16.402;2023-03-13T04:17:38;6.43;;;4.30;;
13309;SDS011;6723;48.256;16.402;2023-03-13T04:20:04;6.40;;;4.23;;
13309;SDS011;6723;48.256;16.402;2023-03-13T04:22:31;6.50;;;4.10;;
13309;SDS011;6723;48.256;16.402;2023-03-13T04:24:58;5.30;;;4.07;;
13309;SDS011;6723;48.256;16.402;2023-03-13T04:27:24;5.93;;;3.93;;
13309;SDS011;6723;48.256;16.402;2023-03-13T04:29:50;7.63;;;4.40;;
13309;SDS011;6723;48.256;16.402;2023-03-13T04:32:16;6.40;;;4.10;;
13309;SDS011;6723;48.256;16.402;2023-03-13T04:34:42;5.20;;;3.90;;
13309;SDS011;6723;48.256;16.402;2023-03-13T04:37:07;5.93;;;3.80;;
13309;SDS011;6723;48.256;16.402;2023-03-13T04:39:36;5.87;;;4.20;;
13309;SDS011;6723;48.256;16.402;2023-03-13T04:42:01;5.80;;;3.97;;
13309;SDS011;6723;48.256;16.402;2023-03-13T04:44:28;5.77;;;3.70;;
13309;SDS011;6723;48.256;16.402;2023-03-13T04:46:53;6.00;;;3.63;;
13309;SDS011;6723;48.256;16.402;2023-03-13T04:49:19;6.33;;;3.80;;
13309;SDS011;6723;48.256;16.402;2023-03-13T04:51:45;6.87;;;3.90;;
13309;SDS011;6723;48.256;16.402;2023-03-13T04:54:11;5.97;;;3.93;;
13309;SDS011;6723;48.256;16.402;2023-03-13T04:56:37;6.33;;;3.50;;
13309;SDS011;6723;48.256;16.402;2023-03-13T04:59:03;5.77;;;3.47;;
13309;SDS011;6723;48.256;16.402;2023-03-13T05:01:29;5.80;;;3.70;;
13309;SDS011;6723;48.256;16.402;2023-03-13T05:03:55;6.10;;;3.53;;
13309;SDS011;6723;48.256;16.402;2023-03-13T05:06:21;5.27;;;3.67;;
13309;SDS011;6723;48.256;16.402;2023-03-13T05:08:46;4.83;;;3.40;;
13309;SDS011;6723;48.256;16.402;2023-03-13T05:11:12;6.70;;;3.53;;
13309;SDS011;6723;48.256;16.402;2023-03-13T05:13:38;4.67;;;3.20;;
13309;SDS011;6723;48.256;16.402;2023-03-13T05:16:04;3.77;;;2.93;;
13309;SDS011;6723;48.256;16.402;2023-03-13T05:18:30;5.33;;;3.23;;
13309;SDS011;6723;48.256;16.402;2023-03-13T05:20:56;6.33;;;3.60;;
13309;SDS011;6723;48.256;16.402;2023-03-13T05:23:22;5.30;;;3.20;;
13309;SDS011;6723;48.256;16.402;2023-03-13T05:25:48;7.73;;;3.60;;
13309;SDS011;6723;48.256;16.402;2023-03-13T05:28:13;4.83;;;2.97;;
13309;SDS011;6723;48.256;16.402;2023-03-13T05:30:39;5.23;;;2.97;;
13309;SDS011;6723;48.256;16.402;2023-03-13T05:33:05;5.73;;;2.83;;
13309;SDS011;6723;48.256;16.402;2023-03-13T05:35:31;5.10;;;3.00;;
13309;SDS011;6723;48.256;16.402;2023-03-13T05:37:56;6.43;;;3.27;;
13309;SDS011;6723;48.256;16.402;2023-03-13T05:40:22;4.63;;;2.80;;
13309;SDS011;6723;48.256;16.402;2023-03-13T05:42:48;4.90;;;2.70;;
13309;SDS011;6723;48.256;16.402;2023-03-13T05:45:14;5.20;;;2.83;;
13309;SDS011;6723;48.256;16.402;2023-03-13T05:47:39;7.83;;;2.87;;
13309;SDS011;6723;48.256;16.402;2023-03-13T05:50:06;5.93;;;2.67;;
13309;SDS011;6723;48.256;16.402;2023-03-13T05:52:32;5.37;;;2.80;;
13309;SDS011;6723;48.256;16.402;2023-03-13T05:54:58;6.67;;;3.07;;
13309;SDS011;6723;48.256;16.402;2023-03-13T05:57:24;4.50;;;2.60;;
13309;SDS011;6723;48.256;16.402;2023-03-13T05:59:50;6.30;;;3.00;;
13309;SDS011;6723;48.256;16.402;2023-03-13T06:02:16;4.20;;;3.07;;
13309;SDS011;6723;48.256;16.402;2023-03-13T06:04:42;6.53;;;2.90;;
13309;SDS011;6723;48.256;16.402;2023-03-13T06:07:07;5.33;;;2.80;;
13309;SDS011;6723;48.256;16.402;2023-03-13T06:09:33;4.77;;;3.07;;
13309;SDS011;6723;48.256;16.402;2023-03-13T06:11:59;7.93;;;3.27;;
13309;SDS011;6723;48.256;16.402;2023-03-13T06:14:25;8.03;;;3.30;;
13309;SDS011;6723;48.256;16.402;2023-03-13T06:16:52;8.57;;;3.40;;
13309;SDS011;6723;48.256;16.402;2023-03-13T06:19:19;6.80;;;3.17;;
13309;SDS011;6723;48.256;16.402;2023-03-13T06:21:48;7.47;;;3.23;;
13309;SDS011;6723;48.256;16.402;2023-03-13T06:24:14;7.50;;;3.00;;
13309;SDS011;6723;48.256;16.402;2023-03-13T06:26:41;7.90;;;3.30;;
13309;SDS011;6723;48.256;16.402;2023-03-13T06:29:07;5.50;;;3.30;;
13309;SDS011;6723;48.256;16.402;2023-03-13T06:31:34;6.83;;;3.30;;
13309;SDS011;6723;48.256;16.402;2023-03-13T06:34:00;4.87;;;3.33;;
13309;SDS011;6723;48.256;16.402;2023-03-13T06:36:25;5.20;;;3.40;;
13309;SDS011;6723;48.256;16.402;2023-03-13T06:38:51;7.60;;;3.37;;
13309;SDS011;6723;48.256;16.402;2023-03-13T06:41:17;10.23;;;4.03;;
13309;SDS011;6723;48.256;16.402;2023-03-13T06:43:43;7.93;;;4.17;;
13309;SDS011;6723;48.256;16.402;2023-03-13T06:46:14;10.07;;;4.10;;
13309;SDS011;6723;48.256;16.402;2023-03-13T06:48:42;8.67;;;4.63;;
13309;SDS011;6723;48.256;16.402;2023-03-13T06:51:12;6.33;;;3.67;;
13309;SDS011;6723;48.256;16.402;2023-03-13T06:53:40;8.10;;;3.73;;
13309;SDS011;6723;48.256;16.402;2023-03-13T06:56:07;6.63;;;3.17;;
13309;SDS011;6723;48.256;16.402;2023-03-13T06:58:37;6.27;;;3.10;;
13309;SDS011;6723;48.256;16.402;2023-03-13T07:01:09;7.07;;;3.30;;
13309;SDS011;6723;48.256;16.402;2023-03-13T07:03:37;4.67;;;2.70;;
13309;SDS011;6723;48.256;16.402;2023-03-13T07:06:05;4.60;;;2.73;;
13309;SDS011;6723;48.256;16.402;2023-03-13T07:08:32;9.83;;;2.67;;
13309;SDS011;6723;48.256;16.402;2023-03-13T07:11:00;5.17;;;2.83;;
13309;SDS011;6723;48.256;16.402;2023-03-13T07:13:28;6.50;;;2.50;;
13309;SDS011;6723;48.256;16.402;2023-03-13T07:15:58;7.80;;;2.73;;
13309;SDS011;6723;48.256;16.402;2023-03-13T07:18:25;4.17;;;2.67;;
13309;SDS011;6723;48.256;16.402;2023-03-13T07:20:55;8.53;;;2.60;;
13309;SDS011;6723;48.256;16.402;2023-03-13T07:23:22;6.73;;;2.70;;
13309;SDS011;6723;48.256;16.402;2023-03-13T07:25:53;4.93;;;2.50;;
13309;SDS011;6723;48.256;16.402;2023-03-13T07:28:20;7.33;;;2.40;;
13309;SDS011;6723;48.256;16.402;2023-03-13T07:30:47;4.30;;;2.13;;
13309;SDS011;6723;48.256;16.402;2023-03-13T07:33:14;8.43;;;2.33;;
13309;SDS011;6723;48.256;16.402;2023-03-13T07:35:40;4.27;;;2.10;;
13309;SDS011;6723;48.256;16.402;2023-03-13T07:38:15;4.33;;;2.03;;
13309;SDS011;6723;48.256;16.402;2023-03-13T07:40:52;2.20;;;2.00;;
13309;SDS011;6723;48.256;16.402;2023-03-13T07:43:19;4.40;;;2.30;;
13309;SDS011;6723;48.256;16.402;2023-03-13T07:45:56;5.17;;;2.43;;
13309;SDS011;6723;48.256;16.402;2023-03-13T07:48:30;6.87;;;2.03;;
13309;SDS011;6723;48.256;16.402;2023-03-13T07:50:58;3.70;;;2.17;;
13309;SDS011;6723;48.256;16.402;2023-03-13T07:53:24;4.37;;;2.23;;
13309;SDS011;6723;48.256;16.402;2023-03-13T07:56:02;6.90;;;2.60;;
13309;SDS011;6723;48.256;16.402;2023-03-13T07:58:31;6.20;;;2.30;;
13309;SDS011;6723;48.256;16.402;2023-03-13T08:00:58;4.27;;;2.07;;
13309;SDS011;6723;48.256;16.402;2023-03-13T08:03:24;3.67;;;1.80;;
13309;SDS011;6723;48.256;16.402;2023-03-13T08:05:58;2.47;;;1.80;;
13309;SDS011;6723;48.256;16.402;2023-03-13T08:08:31;6.00;;;2.53;;
13309;SDS011;6723;48.256;16.402;2023-03-13T08:13:43;6.03;;;3.40;;
13309;SDS011;6723;48.256;16.402;2023-03-13T08:18:46;5.57;;;2.53;;
13309;SDS011;6723;48.256;16.402;2023-03-13T08:21:14;3.93;;;2.27;;
13309;SDS011;6723;48.256;16.402;2023-03-13T08:23:45;3.93;;;2.40;;
13309;SDS011;6723;48.256;16.402;2023-03-13T08:26:16;8.70;;;3.50;;
13309;SDS011;6723;48.256;16.402;2023-03-13T08:28:43;5.60;;;3.00;;
13309;SDS011;6723;48.256;16.402;2023-03-13T08:31:17;3.43;;;2.77;;
13309;SDS011;6723;48.256;16.402;2023-03-13T08:33:45;5.40;;;2.70;;
13309;SDS011;6723;48.256;16.402;2023-03-13T08:38:39;3.17;;;2.60;;
13309;SDS011;6723;48.256;16.402;2023-03-13T08:41:12;3.10;;;2.47;;
13309;SDS011;6723;48.256;16.402;2023-03-13T08:43:40;5.97;;;2.97;;
13309;SDS011;6723;48.256;16.402;2023-03-13T08:46:06;5.63;;;3.10;;
13309;SDS011;6723;48.256;16.402;2023-03-13T08:48:32;4.63;;;3.00;;
13309;SDS011;6723;48.256;16.402;2023-03-13T08:51:03;9.77;;;3.10;;
13309;SDS011;6723;48.256;16.402;2023-03-13T08:53:30;3.73;;;2.93;;
13309;SDS011;6723;48.256;16.402;2023-03-13T08:55:57;5.87;;;3.20;;
13309;SDS011;6723;48.256;16.402;2023-03-13T08:58:23;8.77;;;3.17;;
13309;SDS011;6723;48.256;16.402;2023-03-13T09:00:49;9.20;;;3.53;;
13309;SDS011;6723;48.256;16.402;2023-03-13T09:03:15;4.20;;;3.40;;
13309;SDS011;6723;48.256;16.402;2023-03-13T09:05:44;8.93;;;3.70;;
13309;SDS011;6723;48.256;16.402;2023-03-13T09:08:12;4.43;;;3.83;;
13309;SDS011;6723;48.256;16.402;2023-03-13T09:10:39;6.17;;;3.83;;
13309;SDS011;6723;48.256;16.402;2023-03-13T09:13:05;6.60;;;3.93;;
13309;SDS011;6723;48.256;16.402;2023-03-13T09:15:31;6.30;;;3.70;;
13309;SDS011;6723;48.256;16.402;2023-03-13T09:17:57;4.80;;;3.70;;
13309;SDS011;6723;48.256;16.402;2023-03-13T09:20:23;6.30;;;3.90;;
13309;SDS011;6723;48.256;16.402;2023-03-13T09:22:48;4.53;;;3.57;;
13309;SDS011;6723;48.256;16.402;2023-03-13T09:25:14;5.50;;;4.00;;
13309;SDS011;6723;48.256;16.402;2023-03-13T09:27:40;5.57;;;3.93;;
13309;SDS011;6723;48.256;16.402;2023-03-13T09:30:06;8.40;;;4.33;;
13309;SDS011;6723;48.256;16.402;2023-03-13T09:32:33;7.83;;;4.60;;
13309;SDS011;6723;48.256;16.402;2023-03-13T09:34:58;7.13;;;4.30;;
13309;SDS011;6723;48.256;16.402;2023-03-13T09:37:24;6.00;;;4.60;;
13309;SDS011;6723;48.256;16.402;2023-03-13T09:39:53;6.80;;;4.47;;
13309;SDS011;6723;48.256;16.402;2023-03-13T09:42:19;6.17;;;4.37;;
13309;SDS011;6723;48.256;16.402;2023-03-13T09:45:04;6.40;;;4.50;;
13309;SDS011;6723;48.256;16.402;2023-03-13T09:52:42;8.17;;;4.90;;
13309;SDS011;6723;48.256;16.402;2023-03-13T09:55:30;7.60;;;4.93;;
13309;SDS011;6723;48.256;16.402;2023-03-13T09:58:01;6.80;;;4.70;;
13309;SDS011;6723;48.256;16.402;2023-03-13T10:00:38;7.67;;;5.00;;
13309;SDS011;6723;48.256;16.402;2023-03-13T10:06:03;7.20;;;5.60;;
13309;SDS011;6723;48.256;16.402;2023-03-13T10:08:31;9.40;;;6.07;;
13309;SDS011;6723;48.256;16.402;2023-03-13T10:13:37;6.53;;;5.23;;
13309;SDS011;6723;48.256;16.402;2023-03-13T10:16:26;9.20;;;5.30;;
13309;SDS011;6723;48.256;16.402;2023-03-13T10:19:00;9.13;;;5.67;;
13309;SDS011;6723;48.256;16.402;2023-03-13T10:21:38;7.23;;;5.90;;
13309;SDS011;6723;48.256;16.402;2023-03-13T10:24:11;9.80;;;6.00;;
13309;SDS011;6723;48.256;16.402;2023-03-13T10:26:42;8.13;;;5.87;;
13309;SDS011;6723;48.256;16.402;2023-03-13T10:31:40;6.97;;;5.60;;
13309;SDS011;6723;48.256;16.402;2023-03-13T10:34:12;7.73;;;5.40;;
13309;SDS011;6723;48.256;16.402;2023-03-13T10:36:44;8.40;;;5.47;;
13309;SDS011;6723;48.256;16.402;2023-03-13T10:39:18;8.37;;;5.93;;
13309;SDS011;6723;48.256;16.402;2023-03-13T10:41:47;9.07;;;5.30;;
13309;SDS011;6723;48.256;16.402;2023-03-13T10:44:18;8.10;;;5.53;;
13309;SDS011;6723;48.256;16.402;2023-03-13T10:46:46;8.73;;;4.97;;
13309;SDS011;6723;48.256;16.402;2023-03-13T10:49:15;8.67;;;5.70;;
13309;SDS011;6723;48.256;16.402;2023-03-13T10:51:54;8.77;;;5.37;;
13309;SDS011;6723;48.256;16.402;2023-03-13T10:54:25;6.97;;;4.97;;
13309;SDS011;6723;48.256;16.402;2023-03-13T10:59:58;8.30;;;5.40;;
13309;SDS011;6723;48.256;16.402;2023-03-13T11:02:37;8.53;;;5.50;;
13309;SDS011;6723;48.256;16.402;2023-03-13T11:05:28;9.17;;;5.10;;
13309;SDS011;6723;48.256;16.402;2023-03-13T11:07:53;10.70;;;5.13;;
13309;SDS011;6723;48.256;16.402;2023-03-13T11:10:25;6.23;;;4.90;;
13309;SDS011;6723;48.256;16.402;2023-03-13T11:12:57;10.40;;;4.77;;
13309;SDS011;6723;48.256;16.402;2023-03-13T11:18:04;6.63;;;5.20;;
13309;SDS011;6723;48.256;16.402;2023-03-13T11:20:39;6.50;;;4.53;;
13309;SDS011;6723;48.256;16.402;2023-03-13T11:31:36;6.90;;;5.37;;
13309;SDS011;6723;48.256;16.402;2023-03-13T11:34:48;8.77;;;4.90;;
13309;SDS011;6723;48.256;16.402;2023-03-13T11:51:03;6.17;;;4.67;;
13309;SDS011;6723;48.256;16.402;2023-03-13T11:56:28;5.53;;;4.83;;
13309;SDS011;6723;48.256;16.402;2023-03-13T12:04:38;7.70;;;4.43;;
13309;SDS011;6723;48.256;16.402;2023-03-13T12:07:20;5.93;;;4.00;;
13309;SDS011;6723;48.256;16.402;2023-03-13T12:12:55;7.83;;;4.40;;
13309;SDS011;6723;48.256;16.402;2023-03-13T12:15:50;4.40;;;3.60;;
13309;SDS011;6723;48.256;16.402;2023-03-13T12:20:57;6.17;;;3.53;;
13309;SDS011;6723;48.256;16.402;2023-03-13T12:23:49;4.43;;;3.10;;
13309;SDS011;6723;48.256;16.402;2023-03-13T12:29:15;7.07;;;3.33;;
13309;SDS011;6723;48.256;16.402;2023-03-13T12:32:08;9.23;;;4.10;;
13309;SDS011;6723;48.256;16.402;2023-03-13T12:43:13;6.03;;;3.40;;
13309;SDS011;6723;48.256;16.402;2023-03-13T12:52:16;6.40;;;3.73;;
13309;SDS011;6723;48.256;16.402;2023-03-13T12:59:55;4.63;;;3.23;;
13309;SDS011;6723;48.256;16.402;2023-03-13T13:02:29;5.70;;;3.33;;
13309;SDS011;6723;48.256;16.402;2023-03-13T13:04:56;5.10;;;2.97;;
13309;SDS011;6723;48.256;16.402;2023-03-13T13:07:32;7.30;;;3.30;;
13309;SDS011;6723;48.256;16.402;2023-03-13T13:10:12;3.77;;;3.00;;
13309;SDS011;6723;48.256;16.402;2023-03-13T13:12:46;4.70;;;3.20;;
13309;SDS011;6723;48.256;16.402;2023-03-13T13:15:39;5.63;;;3.33;;
13309;SDS011;6723;48.256;16.402;2023-03-13T13:18:24;5.67;;;2.93;;
13309;SDS011;6723;48.256;16.402;2023-03-13T13:28:58;6.17;;;3.60;;
13309;SDS011;6723;48.256;16.402;2023-03-13T13:31:49;7.93;;;3.50;;
13309;SDS011;6723;48.256;16.402;2023-03-13T13:36:55;7.87;;;3.50;;
13309;SDS011;6723;48.256;16.402;2023-03-13T13:39:34;11.43;;;4.13;;
13309;SDS011;6723;48.256;16.402;2023-03-13T13:44:56;6.30;;;3.17;;
13309;SDS011;6723;48.256;16.402;2023-03-13T13:47:26;5.97;;;3.70;;
13309;SDS011;6723;48.256;16.402;2023-03-13T13:49:54;6.23;;;3.60;;
13309;SDS011;6723;48.256;16.402;2023-03-13T13:54:57;6.03;;;3.23;;
13309;SDS011;6723;48.256;16.402;2023-03-13T13:57:24;6.47;;;3.13;;
13309;SDS011;6723;48.256;16.402;2023-03-13T13:59:59;6.43;;;3.50;;
13309;SDS011;6723;48.256;16.402;2023-03-13T14:02:43;8.10;;;3.80;;
13309;SDS011;6723;48.256;16.402;2023-03-13T14:05:23;6.80;;;3.60;;
13309;SDS011;6723;48.256;16.402;2023-03-13T14:11:04;5.73;;;3.30;;
13309;SDS011;6723;48.256;16.402;2023-03-13T14:13:40;5.33;;;3.17;;
13309;SDS011;6723;48.256;16.402;2023-03-13T14:16:16;5.27;;;3.03;;
13309;SDS011;6723;48.256;16.402;2023-03-13T14:18:51;5.20;;;2.77;;
13309;SDS011;6723;48.256;16.402;2023-03-13T14:21:23;6.57;;;3.07;;
13309;SDS011;6723;48.256;16.402;2023-03-13T14:23:51;3.73;;;2.83;;
13309;SDS011;6723;48.256;16.402;2023-03-13T14:26:27;9.93;;;3.03;;
13309;SDS011;6723;48.256;16.402;2023-03-13T14:28:58;5.23;;;2.87;;
13309;SDS011;6723;48.256;16.402;2023-03-13T14:31:30;4.23;;;2.87;;
13309;SDS011;6723;48.256;16.402;2023-03-13T14:33:58;3.60;;;2.60;;
13309;SDS011;6723;48.256;16.402;2023-03-13T14:36:26;5.23;;;2.80;;
13309;SDS011;6723;48.256;16.402;2023-03-13T14:38:54;7.47;;;2.67;;
13309;SDS011;6723;48.256;16.402;2023-03-13T14:44:05;4.03;;;2.50;;
13309;SDS011;6723;48.256;16.402;2023-03-13T14:46:39;4.03;;;2.60;;
13309;SDS011;6723;48.256;16.402;2023-03-13T14:49:19;4.53;;;2.27;;
13309;SDS011;6723;48.256;16.402;2023-03-13T14:51:59;4.13;;;2.67;;
13309;SDS011;6723;48.256;16.402;2023-03-13T14:54:34;6.47;;;2.50;;
13309;SDS011;6723;48.256;16.402;2023-03-13T14:57:03;6.43;;;2.70;;
13309;SDS011;6723;48.256;16.402;2023-03-13T14:59:35;5.20;;;3.13;;
13309;SDS011;6723;48.256;16.402;2023-03-13T15:02:02;4.93;;;3.00;;
13309;SDS011;6723;48.256;16.402;2023-03-13T15:04:50;6.33;;;3.10;;
13309;SDS011;6723;48.256;16.402;2023-03-13T15:07:17;3.63;;;2.97;;
13309;SDS011;6723;48.256;16.402;2023-03-13T15:09:44;6.00;;;2.70;;
13309;SDS011;6723;48.256;16.402;2023-03-13T15:12:16;5.17;;;2.53;;
13309;SDS011;6723;48.256;16.402;2023-03-13T15:14:46;3.57;;;2.67;;
13309;SDS011;6723;48.256;16.402;2023-03-13T15:19:48;4.40;;;2.90;;
13309;SDS011;6723;48.256;16.402;2023-03-13T15:22:21;5.60;;;2.87;;
13309;SDS011;6723;48.256;16.402;2023-03-13T15:24:52;4.90;;;2.83;;
13309;SDS011;6723;48.256;16.402;2023-03-13T15:27:19;6.17;;;3.30;;
13309;SDS011;6723;48.256;16.402;2023-03-13T15:29:47;5.57;;;2.37;;
13309;SDS011;6723;48.256;16.402;2023-03-13T15:32:26;3.73;;;2.57;;
13309;SDS011;6723;48.256;16.402;2023-03-13T15:34:55;3.90;;;2.70;;
13309;SDS011;6723;48.256;16.402;2023-03-13T15:37:29;5.83;;;2.47;;
13309;SDS011;6723;48.256;16.402;2023-03-13T15:39:55;4.63;;;2.37;;
13309;SDS011;6723;48.256;16.402;2023-03-13T15:42:22;6.50;;;2.50;;
13309;SDS011;6723;48.256;16.402;2023-03-13T15:44:49;6.33;;;2.90;;
13309;SDS011;6723;48.256;16.402;2023-03-13T15:47:16;5.33;;;2.70;;
13309;SDS011;6723;48.256;16.402;2023-03-13T15:49:44;6.33;;;2.87;;
13309;SDS011;6723;48.256;16.402;2023-03-13T15:52:14;4.23;;;2.50;;
13309;SDS011;6723;48.256;16.402;2023-03-13T15:54:44;6.50;;;3.20;;
13309;SDS011;6723;48.256;16.402;2023-03-13T15:57:11;3.87;;;2.80;;
13309;SDS011;6723;48.256;16.402;2023-03-13T15:59:42;3.27;;;2.47;;
13309;SDS011;6723;48.256;16.402;2023-03-13T16:02:13;5.80;;;2.80;;
13309;SDS011;6723;48.256;16.402;2023-03-13T16:04:41;4.73;;;2.97;;
13309;SDS011;6723;48.256;16.402;2023-03-13T16:07:08;6.00;;;2.77;;
13309;SDS011;6723;48.256;16.402;2023-03-13T16:09:39;5.30;;;2.93;;
13309;SDS011;6723;48.256;16.402;2023-03-13T16:12:06;7.43;;;2.70;;
13309;SDS011;6723;48.256;16.402;2023-03-13T16:14:32;5.03;;;2.90;;
13309;SDS011;6723;48.256;16.402;2023-03-13T16:16:58;6.57;;;3.00;;
13309;SDS011;6723;48.256;16.402;2023-03-13T16:19:24;3.40;;;2.60;;
13309;SDS011;6723;48.256;16.402;2023-03-13T16:21:50;4.53;;;2.73;;
13309;SDS011;6723;48.256;16.402;2023-03-13T16:24:16;3.80;;;2.80;;
13309;SDS011;6723;48.256;16.402;2023-03-13T16:26:43;6.40;;;2.70;;
13309;SDS011;6723;48.256;16.402;2023-03-13T16:29:13;7.90;;;2.73;;
13309;SDS011;6723;48.256;16.402;2023-03-13T16:31:40;3.60;;;2.60;;
13309;SDS011;6723;48.256;16.402;2023-03-13T16:34:06;3.00;;;2.70;;
13309;SDS011;6723;48.256;16.402;2023-03-13T16:36:33;5.07;;;2.97;;
13309;SDS011;6723;48.256;16.402;2023-03-13T16:39:04;5.17;;;2.70;;
13309;SDS011;6723;48.256;16.402;2023-03-13T16:41:34;6.00;;;2.80;;
13309;SDS011;6723;48.256;16.402;2023-03-13T16:44:00;5.90;;;2.70;;
13309;SDS011;6723;48.256;16.402;2023-03-13T16:46:40;4.90;;;2.83;;
13309;SDS011;6723;48.256;16.402;2023-03-13T16:49:12;9.30;;;2.93;;
13309;SDS011;6723;48.256;16.402;2023-03-13T16:51:39;5.47;;;2.80;;
13309;SDS011;6723;48.256;16.402;2023-03-13T16:54:05;4.53;;;2.80;;
13309;SDS011;6723;48.256;16.402;2023-03-13T16:56:32;4.77;;;2.53;;
13309;SDS011;6723;48.256;16.402;2023-03-13T16:59:01;4.63;;;2.97;;
13309;SDS011;6723;48.256;16.402;2023-03-13T17:01:29;4.97;;;2.77;;
13309;SDS011;6723;48.256;16.402;2023-03-13T17:03:55;4.70;;;2.57;;
13309;SDS011;6723;48.256;16.402;2023-03-13T17:06:23;4.87;;;3.10;;